sensor_id;sensor_type;location;lat;lon;timestamp;pressure;altitude;pressure_sealevel;temperature;humidity
66381;BME280;53177;52.648;1.214;2023-07-20T00:01:34;101116.47;;;13.66;100.00
66381;BME280;53177;52.648;1.214;2023-07-20T00:04:00;101118.25;;;13.65;100.00
66381;BME280;53177;52.648;1.214;2023-07-20T00:06:25;101121.03;;;13.61;100.00
66381;BME280;53177;52.648;1.214;2023-07-20T00:08:53;101119.38;;;13.57;100.00
66381;BME280;53177;52.648;1.214;2023-07-20T00:11:19;101132.69;;;13.25;100.00
66381;BME280;53177;52.648;1.214;2023-07-20T00:13:45;101125.31;;;13.34;100.00
66381;BME280;53177;52.648;1.214;2023-07-20T00:16:10;101126.97;;;13.38;100.00
66381;BME280;53177;52.648;1.214;2023-07-20T00:18:35;101123.50;;;13.36;100.00
66381;BME280;53177;52.648;1.214;2023-07-20T00:21:01;101120.66;;;13.42;100.00
66381;BME280;53177;52.648;1.214;2023-07-20T00:23:27;101117.31;;;13.36;100.00
66381;BME280;53177;52.648;1.214;2023-07-20T00:25:52;101115.56;;;13.35;100.00
66381;BME280;53177;52.648;1.214;2023-07-20T00:28:18;101111.09;;;13.37;100.00
66381;BME280;53177;52.648;1.214;2023-07-20T00:30:43;101120.09;;;13.31;100.00
66381;BME280;53177;52.648;1.214;2023-07-20T00:33:10;101115.72;;;13.30;100.00
66381;BME280;53177;52.648;1.214;2023-07-20T00:35:37;101113.00;;;13.32;100.00
66381;BME280;53177;52.648;1.214;2023-07-20T00:38:03;101122.97;;;13.24;100.00
66381;BME280;53177;52.648;1.214;2023-07-20T00:40:28;101120.41;;;13.21;100.00
66381;BME280;53177;52.648;1.214;2023-07-20T00:42:54;101122.38;;;13.12;100.00
66381;BME280;53177;52.648;1.214;2023-07-20T00:45:19;101121.44;;;13.15;100.00
66381;BME280;53177;52.648;1.214;2023-07-20T00:47:45;101120.75;;;13.07;100.00
66381;BME280;53177;52.648;1.214;2023-07-20T00:50:12;101120.81;;;13.04;100.00
66381;BME280;53177;52.648;1.214;2023-07-20T00:52:38;101116.16;;;13.13;100.00
66381;BME280;53177;52.648;1.214;2023-07-20T00:55:07;101115.50;;;13.04;100.00
66381;BME280;53177;52.648;1.214;2023-07-20T00:57:34;101124.59;;;12.94;100.00
66381;BME280;53177;52.648;1.214;2023-07-20T00:59:59;101118.28;;;12.99;100.00
66381;BME280;53177;52.648;1.214;2023-07-20T01:02:24;101122.72;;;12.99;100.00
66381;BME280;53177;52.648;1.214;2023-07-20T01:04:50;101126.94;;;13.07;100.00
66381;BME280;53177;52.648;1.214;2023-07-20T01:07:34;101128.72;;;13.07;100.00
66381;BME280;53177;52.648;1.214;2023-07-20T01:12:42;101114.59;;;13.05;100.00
66381;BME280;53177;52.648;1.214;2023-07-20T01:15:08;101109.28;;;13.05;100.00
66381;BME280;53177;52.648;1.214;2023-07-20T01:17:35;101106.69;;;13.02;100.00
66381;BME280;53177;52.648;1.214;2023-07-20T01:20:00;101112.78;;;13.07;100.00
66381;BME280;53177;52.648;1.214;2023-07-20T01:33:15;101110.66;;;12.15;100.00
66381;BME280;53177;52.648;1.214;2023-07-20T01:35:41;101110.78;;;12.09;100.00
66381;BME280;53177;52.648;1.214;2023-07-20T01:38:09;101109.94;;;12.07;100.00
66381;BME280;53177;52.648;1.214;2023-07-20T01:40:35;101115.91;;;12.16;100.00
66381;BME280;53177;52.648;1.214;2023-07-20T01:43:02;101115.78;;;12.23;100.00
66381;BME280;53177;52.648;1.214;2023-07-20T01:45:27;101115.97;;;12.15;100.00
66381;BME280;53177;52.648;1.214;2023-07-20T01:47:53;101116.78;;;12.17;100.00
66381;BME280;53177;52.648;1.214;2023-07-20T01:50:19;101118.72;;;12.09;100.00
66381;BME280;53177;52.648;1.214;2023-07-20T01:52:45;101123.13;;;12.10;100.00
66381;BME280;53177;52.648;1.214;2023-07-20T01:55:11;101121.53;;;12.03;100.00
66381;BME280;53177;52.648;1.214;2023-07-20T01:57:36;101120.38;;;12.14;100.00
66381;BME280;53177;52.648;1.214;2023-07-20T02:00:02;101114.75;;;12.28;100.00
66381;BME280;53177;52.648;1.214;2023-07-20T02:02:27;101112.88;;;12.33;100.00
66381;BME280;53177;52.648;1.214;2023-07-20T02:04:53;101115.28;;;12.42;100.00
66381;BME280;53177;52.648;1.214;2023-07-20T02:07:19;101104.41;;;12.53;100.00
66381;BME280;53177;52.648;1.214;2023-07-20T02:09:44;101110.72;;;12.49;100.00
66381;BME280;53177;52.648;1.214;2023-07-20T02:12:10;101100.00;;;12.53;100.00
66381;BME280;53177;52.648;1.214;2023-07-20T02:14:35;101106.34;;;12.48;100.00
66381;BME280;53177;52.648;1.214;2023-07-20T02:17:01;101108.72;;;12.58;100.00
66381;BME280;53177;52.648;1.214;2023-07-20T02:19:26;101107.38;;;12.76;100.00
66381;BME280;53177;52.648;1.214;2023-07-20T02:21:52;101106.41;;;12.79;100.00
66381;BME280;53177;52.648;1.214;2023-07-20T02:24:18;101102.94;;;12.77;100.00
66381;BME280;53177;52.648;1.214;2023-07-20T02:26:43;101108.22;;;12.78;100.00
66381;BME280;53177;52.648;1.214;2023-07-20T02:29:09;101109.03;;;12.82;100.00
66381;BME280;53177;52.648;1.214;2023-07-20T02:31:37;101106.31;;;12.83;100.00
66381;BME280;53177;52.648;1.214;2023-07-20T02:34:02;101108.22;;;12.78;100.00
66381;BME280;53177;52.648;1.214;2023-07-20T02:36:28;101106.34;;;12.46;100.00
66381;BME280;53177;52.648;1.214;2023-07-20T02:38:53;101105.03;;;12.27;100.00
66381;BME280;53177;52.648;1.214;2023-07-20T02:41:19;101103.69;;;12.09;100.00
66381;BME280;53177;52.648;1.214;2023-07-20T02:43:45;101111.09;;;11.95;100.00
66381;BME280;53177;52.648;1.214;2023-07-20T02:46:10;101119.03;;;11.95;100.00
66381;BME280;53177;52.648;1.214;2023-07-20T02:48:36;101112.44;;;12.13;100.00
66381;BME280;53177;52.648;1.214;2023-07-20T02:51:01;101105.06;;;11.87;100.00
66381;BME280;53177;52.648;1.214;2023-07-20T02:53:26;101102.78;;;11.69;100.00
66381;BME280;53177;52.648;1.214;2023-07-20T02:55:52;101103.63;;;11.73;100.00
66381;BME280;53177;52.648;1.214;2023-07-20T02:58:17;101096.38;;;11.82;100.00
66381;BME280;53177;52.648;1.214;2023-07-20T03:00:43;101099.69;;;11.92;100.00
66381;BME280;53177;52.648;1.214;2023-07-20T03:03:09;101102.16;;;12.01;100.00
66381;BME280;53177;52.648;1.214;2023-07-20T03:05:35;101105.28;;;12.16;100.00
66381;BME280;53177;52.648;1.214;2023-07-20T03:08:03;101100.84;;;12.18;100.00
66381;BME280;53177;52.648;1.214;2023-07-20T03:10:29;101105.19;;;12.23;100.00
66381;BME280;53177;52.648;1.214;2023-07-20T03:12:54;101102.66;;;12.16;100.00
66381;BME280;53177;52.648;1.214;2023-07-20T03:15:19;101109.78;;;12.13;100.00
66381;BME280;53177;52.648;1.214;2023-07-20T03:17:45;101104.28;;;12.22;100.00
66381;BME280;53177;52.648;1.214;2023-07-20T03:20:11;101110.81;;;12.07;100.00
66381;BME280;53177;52.648;1.214;2023-07-20T03:22:40;101107.63;;;11.93;100.00
66381;BME280;53177;52.648;1.214;2023-07-20T03:25:11;101108.59;;;11.89;100.00
66381;BME280;53177;52.648;1.214;2023-07-20T03:27:45;101115.13;;;11.70;100.00
66381;BME280;53177;52.648;1.214;2023-07-20T03:30:14;101115.09;;;11.75;100.00
66381;BME280;53177;52.648;1.214;2023-07-20T03:32:46;101120.16;;;11.84;100.00
66381;BME280;53177;52.648;1.214;2023-07-20T03:35:20;101116.66;;;11.83;100.00
66381;BME280;53177;52.648;1.214;2023-07-20T03:37:50;101111.91;;;11.97;100.00
66381;BME280;53177;52.648;1.214;2023-07-20T03:40:21;101112.75;;;12.01;100.00
66381;BME280;53177;52.648;1.214;2023-07-20T03:42:50;101112.69;;;12.04;100.00
66381;BME280;53177;52.648;1.214;2023-07-20T03:45:20;101116.19;;;12.04;100.00
66381;BME280;53177;52.648;1.214;2023-07-20T03:47:49;101111.81;;;12.02;100.00
66381;BME280;53177;52.648;1.214;2023-07-20T03:50:15;101113.56;;;12.04;100.00
66381;BME280;53177;52.648;1.214;2023-07-20T03:52:41;101116.53;;;11.89;100.00
66381;BME280;53177;52.648;1.214;2023-07-20T03:55:06;101122.97;;;11.78;100.00
66381;BME280;53177;52.648;1.214;2023-07-20T03:57:32;101123.94;;;11.72;100.00
66381;BME280;53177;52.648;1.214;2023-07-20T03:59:59;101126.56;;;11.74;100.00
66381;BME280;53177;52.648;1.214;2023-07-20T04:02:24;101129.94;;;11.82;100.00
66381;BME280;53177;52.648;1.214;2023-07-20T04:04:50;101125.38;;;11.90;100.00
66381;BME280;53177;52.648;1.214;2023-07-20T04:07:16;101124.41;;;11.92;100.00
66381;BME280;53177;52.648;1.214;2023-07-20T04:09:41;101128.69;;;11.98;100.00
66381;BME280;53177;52.648;1.214;2023-07-20T04:12:07;101131.34;;;11.98;100.00
66381;BME280;53177;52.648;1.214;2023-07-20T04:14:32;101122.88;;;11.82;100.00
66381;BME280;53177;52.648;1.214;2023-07-20T04:16:58;101127.38;;;11.77;100.00
66381;BME280;53177;52.648;1.214;2023-07-20T04:19:25;101121.94;;;11.83;100.00
66381;BME280;53177;52.648;1.214;2023-07-20T04:21:51;101121.78;;;11.91;100.00
66381;BME280;53177;52.648;1.214;2023-07-20T04:24:16;101123.53;;;11.92;100.00
66381;BME280;53177;52.648;1.214;2023-07-20T04:26:41;101123.59;;;11.89;100.00
66381;BME280;53177;52.648;1.214;2023-07-20T04:29:07;101123.53;;;11.92;100.00
66381;BME280;53177;52.648;1.214;2023-07-20T04:31:33;101127.16;;;11.88;100.00
66381;BME280;53177;52.648;1.214;2023-07-20T04:33:59;101116.00;;;11.72;100.00
66381;BME280;53177;52.648;1.214;2023-07-20T04:36:24;101118.09;;;11.56;100.00
66381;BME280;53177;52.648;1.214;2023-07-20T04:38:50;101117.22;;;11.56;100.00
66381;BME280;53177;52.648;1.214;2023-07-20T04:41:15;101112.50;;;11.70;100.00
66381;BME280;53177;52.648;1.214;2023-07-20T04:43:41;101121.28;;;11.72;100.00
66381;BME280;53177;52.648;1.214;2023-07-20T04:46:08;101122.09;;;11.77;100.00
66381;BME280;53177;52.648;1.214;2023-07-20T04:48:34;101126.50;;;11.78;100.00
66381;BME280;53177;52.648;1.214;2023-07-20T04:50:59;101113.94;;;11.86;100.00
66381;BME280;53177;52.648;1.214;2023-07-20T04:53:25;101119.28;;;11.85;100.00
66381;BME280;53177;52.648;1.214;2023-07-20T04:55:50;101116.63;;;11.85;100.00
66381;BME280;53177;52.648;1.214;2023-07-20T04:58:18;101111.56;;;11.74;100.00
66381;BME280;53177;52.648;1.214;2023-07-20T05:00:43;101107.88;;;11.80;100.00
66381;BME280;53177;52.648;1.214;2023-07-20T05:03:09;101116.66;;;11.83;100.00
66381;BME280;53177;52.648;1.214;2023-07-20T05:05:34;101116.56;;;11.88;100.00
66381;BME280;53177;52.648;1.214;2023-07-20T05:08:00;101118.13;;;11.96;100.00
66381;BME280;53177;52.648;1.214;2023-07-20T05:10:26;101124.25;;;11.98;100.00
66381;BME280;53177;52.648;1.214;2023-07-20T05:12:52;101124.16;;;12.04;100.00
66381;BME280;53177;52.648;1.214;2023-07-20T05:15:17;101124.09;;;12.06;100.00
66381;BME280;53177;52.648;1.214;2023-07-20T05:17:43;101124.16;;;12.03;100.00
66381;BME280;53177;52.648;1.214;2023-07-20T05:20:09;101125.16;;;11.99;100.00
66381;BME280;53177;52.648;1.214;2023-07-20T05:22:38;101125.16;;;11.97;100.00
66381;BME280;53177;52.648;1.214;2023-07-20T05:25:07;101127.78;;;11.99;100.00
66381;BME280;53177;52.648;1.214;2023-07-20T05:27:34;101126.09;;;11.96;100.00
66381;BME280;53177;52.648;1.214;2023-07-20T05:30:00;101122.59;;;11.94;100.00
66381;BME280;53177;52.648;1.214;2023-07-20T05:32:25;101119.03;;;11.97;100.00
66381;BME280;53177;52.648;1.214;2023-07-20T05:34:52;101117.91;;;12.05;100.00
66381;BME280;53177;52.648;1.214;2023-07-20T05:37:17;101115.31;;;12.04;100.00
66381;BME280;53177;52.648;1.214;2023-07-20T05:39:43;101117.91;;;12.05;100.00
66381;BME280;53177;52.648;1.214;2023-07-20T05:42:08;101117.75;;;12.13;100.00
66381;BME280;53177;52.648;1.214;2023-07-20T05:44:34;101116.94;;;12.09;100.00
66381;BME280;53177;52.648;1.214;2023-07-20T05:46:59;101115.09;;;12.13;100.00
66381;BME280;53177;52.648;1.214;2023-07-20T05:49:25;101116.75;;;12.18;100.00
66381;BME280;53177;52.648;1.214;2023-07-20T05:51:50;101114.91;;;12.22;100.00
66381;BME280;53177;52.648;1.214;2023-07-20T05:54:16;101113.06;;;12.24;100.00
66381;BME280;53177;52.648;1.214;2023-07-20T05:56:41;101110.41;;;12.24;100.00
66381;BME280;53177;52.648;1.214;2023-07-20T05:59:07;101116.59;;;12.25;100.00
66381;BME280;53177;52.648;1.214;2023-07-20T06:01:32;101110.22;;;12.33;100.00
66381;BME280;53177;52.648;1.214;2023-07-20T06:03:58;101105.84;;;12.31;100.00
66381;BME280;53177;52.648;1.214;2023-07-20T06:06:23;101109.28;;;12.34;100.00
66381;BME280;53177;52.648;1.214;2023-07-20T06:08:48;101113.69;;;12.37;100.00
66381;BME280;53177;52.648;1.214;2023-07-20T06:11:14;101110.16;;;12.36;100.00
66381;BME280;53177;52.648;1.214;2023-07-20T06:13:39;101118.06;;;12.38;100.00
66381;BME280;53177;52.648;1.214;2023-07-20T06:16:04;101117.91;;;12.44;100.00
66381;BME280;53177;52.648;1.214;2023-07-20T06:18:30;101114.13;;;12.54;100.00
66381;BME280;53177;52.648;1.214;2023-07-20T06:20:56;101118.25;;;12.67;100.00
66381;BME280;53177;52.648;1.214;2023-07-20T06:23:21;101119.63;;;12.82;100.00
66381;BME280;53177;52.648;1.214;2023-07-20T06:25:47;101111.59;;;12.85;100.00
66381;BME280;53177;52.648;1.214;2023-07-20T06:28:13;101120.28;;;12.90;100.00
66381;BME280;53177;52.648;1.214;2023-07-20T06:30:38;101119.50;;;12.86;100.00
66381;BME280;53177;52.648;1.214;2023-07-20T06:33:03;101119.56;;;12.85;100.00
66381;BME280;53177;52.648;1.214;2023-07-20T06:35:29;101116.09;;;12.81;100.00
66381;BME280;53177;52.648;1.214;2023-07-20T06:37:54;101119.44;;;12.89;100.00
66381;BME280;53177;52.648;1.214;2023-07-20T06:40:21;101122.63;;;13.02;100.00
66381;BME280;53177;52.648;1.214;2023-07-20T06:42:47;101115.44;;;13.07;100.00
66381;BME280;53177;52.648;1.214;2023-07-20T06:45:12;101116.97;;;13.15;100.00
66381;BME280;53177;52.648;1.214;2023-07-20T06:47:39;101119.69;;;13.14;100.00
66381;BME280;53177;52.648;1.214;2023-07-20T06:50:08;101109.75;;;13.22;100.00
66381;BME280;53177;52.648;1.214;2023-07-20T06:52:34;101114.09;;;13.25;100.00
66381;BME280;53177;52.648;1.214;2023-07-20T06:54:59;101120.06;;;13.33;100.00
66381;BME280;53177;52.648;1.214;2023-07-20T06:57:25;101119.19;;;13.32;100.00
66381;BME280;53177;52.648;1.214;2023-07-20T06:59:50;101122.66;;;13.34;100.00
66381;BME280;53177;52.648;1.214;2023-07-20T07:02:16;101120.66;;;13.44;100.00
66381;BME280;53177;52.648;1.214;2023-07-20T07:04:42;101118.59;;;13.53;100.00
66381;BME280;53177;52.648;1.214;2023-07-20T07:07:07;101121.13;;;13.58;100.00
66381;BME280;53177;52.648;1.214;2023-07-20T07:09:33;101116.47;;;13.66;100.00
66381;BME280;53177;52.648;1.214;2023-07-20T07:11:59;101118.28;;;13.64;100.00
66381;BME280;53177;52.648;1.214;2023-07-20T07:14:24;101120.59;;;13.76;100.00
66381;BME280;53177;52.648;1.214;2023-07-20T07:16:50;101125.66;;;13.85;100.00
66381;BME280;53177;52.648;1.214;2023-07-20T07:19:15;101128.78;;;13.98;100.00
66381;BME280;53177;52.648;1.214;2023-07-20T07:21:40;101120.59;;;14.05;100.00
66381;BME280;53177;52.648;1.214;2023-07-20T07:24:06;101119.81;;;14.02;100.00
66381;BME280;53177;52.648;1.214;2023-07-20T07:26:33;101113.44;;;14.07;100.00
66381;BME280;53177;52.648;1.214;2023-07-20T07:28:58;101120.25;;;14.16;100.00
66381;BME280;53177;52.648;1.214;2023-07-20T07:31:29;101118.56;;;14.13;100.00
66381;BME280;53177;52.648;1.214;2023-07-20T07:33:55;101118.97;;;14.29;100.00
66381;BME280;53177;52.648;1.214;2023-07-20T07:36:21;101116.97;;;14.37;100.00
66381;BME280;53177;52.648;1.214;2023-07-20T07:38:46;101113.38;;;14.38;100.00
66381;BME280;53177;52.648;1.214;2023-07-20T07:41:11;101121.22;;;14.43;100.00
66381;BME280;53177;52.648;1.214;2023-07-20T07:43:37;101119.03;;;14.55;100.00
66381;BME280;53177;52.648;1.214;2023-07-20T07:46:03;101117.19;;;14.57;100.00
66381;BME280;53177;52.648;1.214;2023-07-20T07:48:29;101118.72;;;14.65;100.00
66381;BME280;53177;52.648;1.214;2023-07-20T07:50:55;101112.13;;;14.76;100.00
66381;BME280;53177;52.648;1.214;2023-07-20T07:53:20;101113.53;;;14.86;100.00
66381;BME280;53177;52.648;1.214;2023-07-20T07:55:47;101109.09;;;14.87;100.00
66381;BME280;53177;52.648;1.214;2023-07-20T07:58:13;101110.97;;;14.85;100.00
66381;BME280;53177;52.648;1.214;2023-07-20T08:00:39;101117.16;;;14.85;100.00
66381;BME280;53177;52.648;1.214;2023-07-20T08:03:06;101114.81;;;15.01;100.00
66381;BME280;53177;52.648;1.214;2023-07-20T08:05:31;101106.78;;;15.02;100.00
66381;BME280;53177;52.648;1.214;2023-07-20T08:07:56;101107.84;;;14.97;99.59
66381;BME280;53177;52.648;1.214;2023-07-20T08:10:22;101109.72;;;14.95;99.02
66381;BME280;53177;52.648;1.214;2023-07-20T08:12:48;101107.59;;;15.04;96.81
66381;BME280;53177;52.648;1.214;2023-07-20T08:15:13;101109.09;;;15.11;95.39
66381;BME280;53177;52.648;1.214;2023-07-20T08:17:41;101110.81;;;15.14;91.04
66381;BME280;53177;52.648;1.214;2023-07-20T08:20:07;101098.38;;;15.15;94.88
66381;BME280;53177;52.648;1.214;2023-07-20T08:22:34;101104.56;;;15.40;95.18
66381;BME280;53177;52.648;1.214;2023-07-20T08:25:00;101103.41;;;15.47;95.29
66381;BME280;53177;52.648;1.214;2023-07-20T08:27:25;101100.84;;;15.69;90.60
66381;BME280;53177;52.648;1.214;2023-07-20T08:29:51;101100.38;;;15.81;88.45
66381;BME280;53177;52.648;1.214;2023-07-20T08:32:16;101097.19;;;15.94;88.21
66381;BME280;53177;52.648;1.214;2023-07-20T08:34:41;101090.38;;;16.09;87.56
66381;BME280;53177;52.648;1.214;2023-07-20T08:37:07;101090.81;;;15.98;87.48
66381;BME280;53177;52.648;1.214;2023-07-20T08:39:35;101092.34;;;16.04;85.46
66381;BME280;53177;52.648;1.214;2023-07-20T08:42:01;101088.28;;;16.17;84.99
66381;BME280;53177;52.648;1.214;2023-07-20T08:44:29;101086.63;;;16.36;83.44
66381;BME280;53177;52.648;1.214;2023-07-20T08:46:57;101091.66;;;16.44;82.15
66381;BME280;53177;52.648;1.214;2023-07-20T08:49:23;101091.41;;;16.72;82.89
66381;BME280;53177;52.648;1.214;2023-07-20T08:51:48;101089.41;;;16.97;81.18
66381;BME280;53177;52.648;1.214;2023-07-20T08:54:15;101086.56;;;17.22;80.87
66381;BME280;53177;52.648;1.214;2023-07-20T08:56:42;101086.97;;;17.33;81.03
66381;BME280;53177;52.648;1.214;2023-07-20T08:59:12;101089.28;;;17.40;80.57
66381;BME280;53177;52.648;1.214;2023-07-20T09:01:39;101086.31;;;17.67;79.15
66381;BME280;53177;52.648;1.214;2023-07-20T09:04:04;101084.72;;;18.00;80.47
66381;BME280;53177;52.648;1.214;2023-07-20T09:06:30;101079.53;;;18.16;75.75
66381;BME280;53177;52.648;1.214;2023-07-20T09:08:55;101083.22;;;18.49;75.50
66381;BME280;53177;52.648;1.214;2023-07-20T09:11:21;101079.13;;;18.61;73.58
66381;BME280;53177;52.648;1.214;2023-07-20T09:13:46;101076.88;;;18.52;71.81
66381;BME280;53177;52.648;1.214;2023-07-20T09:16:15;101088.28;;;19.08;73.86
66381;BME280;53177;52.648;1.214;2023-07-20T09:18:41;101080.56;;;19.02;73.23
66381;BME280;53177;52.648;1.214;2023-07-20T09:21:06;101076.13;;;19.35;72.95
66381;BME280;53177;52.648;1.214;2023-07-20T09:23:37;101080.53;;;18.85;70.43
66381;BME280;53177;52.648;1.214;2023-07-20T09:26:10;101075.56;;;19.29;68.45
66381;BME280;53177;52.648;1.214;2023-07-20T09:28:42;101071.06;;;19.29;70.33
66381;BME280;53177;52.648;1.214;2023-07-20T09:31:20;101071.72;;;19.17;71.77
66381;BME280;53177;52.648;1.214;2023-07-20T09:33:47;101078.13;;;18.80;71.80
66381;BME280;53177;52.648;1.214;2023-07-20T09:36:13;101071.41;;;18.89;74.50
66381;BME280;53177;52.648;1.214;2023-07-20T09:38:42;101068.41;;;19.47;71.13
66381;BME280;53177;52.648;1.214;2023-07-20T09:41:15;101066.09;;;19.72;71.94
66381;BME280;53177;52.648;1.214;2023-07-20T09:43:41;101058.50;;;20.11;68.26
66381;BME280;53177;52.648;1.214;2023-07-20T09:46:06;101060.09;;;20.31;66.22
66381;BME280;53177;52.648;1.214;2023-07-20T09:48:32;101065.25;;;20.65;67.71
66381;BME280;53177;52.648;1.214;2023-07-20T09:50:57;101071.72;;;20.31;65.77
66381;BME280;53177;52.648;1.214;2023-07-20T09:53:24;101063.78;;;19.49;65.15
66381;BME280;53177;52.648;1.214;2023-07-20T09:55:52;101062.81;;;19.17;66.20
66381;BME280;53177;52.648;1.214;2023-07-20T09:58:17;101057.31;;;19.03;68.48
66381;BME280;53177;52.648;1.214;2023-07-20T10:00:43;101063.22;;;18.39;67.96
66381;BME280;53177;52.648;1.214;2023-07-20T10:03:19;101053.44;;;18.02;69.61
66381;BME280;53177;52.648;1.214;2023-07-20T10:05:56;101062.78;;;18.29;70.75
66381;BME280;53177;52.648;1.214;2023-07-20T10:08:28;101054.00;;;17.90;69.44
66381;BME280;53177;52.648;1.214;2023-07-20T10:10:57;101052.19;;;17.90;68.32
66381;BME280;53177;52.648;1.214;2023-07-20T10:13:26;101046.13;;;18.06;72.03
66381;BME280;53177;52.648;1.214;2023-07-20T10:16:06;101047.25;;;18.19;73.76
66381;BME280;53177;52.648;1.214;2023-07-20T10:21:19;101057.03;;;18.37;76.93
66381;BME280;53177;52.648;1.214;2023-07-20T10:23:46;101050.00;;;18.17;71.81
66381;BME280;53177;52.648;1.214;2023-07-20T10:26:12;101046.84;;;17.90;71.94
66381;BME280;53177;52.648;1.214;2023-07-20T10:28:38;101049.47;;;17.92;73.34
66381;BME280;53177;52.648;1.214;2023-07-20T10:31:07;101049.53;;;17.90;71.76
66381;BME280;53177;52.648;1.214;2023-07-20T10:33:33;101049.97;;;18.36;72.44
66381;BME280;53177;52.648;1.214;2023-07-20T10:36:03;101035.75;;;19.04;70.63
66381;BME280;53177;52.648;1.214;2023-07-20T10:41:39;101049.66;;;18.61;68.93
66381;BME280;53177;52.648;1.214;2023-07-20T10:44:08;101048.34;;;18.51;69.73
66381;BME280;53177;52.648;1.214;2023-07-20T10:46:44;101045.28;;;18.22;71.21
66381;BME280;53177;52.648;1.214;2023-07-20T10:49:13;101043.78;;;18.17;72.64
66381;BME280;53177;52.648;1.214;2023-07-20T10:51:48;101054.03;;;18.26;70.29
66381;BME280;53177;52.648;1.214;2023-07-20T10:56:42;101044.88;;;18.13;73.36
66381;BME280;53177;52.648;1.214;2023-07-20T11:01:49;101047.63;;;17.92;70.41
66381;BME280;53177;52.648;1.214;2023-07-20T11:04:16;101040.75;;;18.06;72.02
66381;BME280;53177;52.648;1.214;2023-07-20T11:06:44;101047.41;;;17.97;69.78
66381;BME280;53177;52.648;1.214;2023-07-20T11:09:13;101039.16;;;18.02;71.31
66381;BME280;53177;52.648;1.214;2023-07-20T11:11:48;101036.81;;;17.77;69.93
66381;BME280;53177;52.648;1.214;2023-07-20T11:14:23;101043.13;;;18.12;67.08
66381;BME280;53177;52.648;1.214;2023-07-20T11:16:51;101044.69;;;17.98;71.37
66381;BME280;53177;52.648;1.214;2023-07-20T11:19:18;101039.09;;;18.39;69.89
66381;BME280;53177;52.648;1.214;2023-07-20T11:21:46;101038.69;;;18.65;69.77
66381;BME280;53177;52.648;1.214;2023-07-20T11:24:13;101038.94;;;18.61;70.29
66381;BME280;53177;52.648;1.214;2023-07-20T11:26:53;101039.34;;;18.87;70.92
66381;BME280;53177;52.648;1.214;2023-07-20T11:29:20;101031.59;;;18.99;70.71
66381;BME280;53177;52.648;1.214;2023-07-20T11:31:47;101030.50;;;19.35;71.08
66381;BME280;53177;52.648;1.214;2023-07-20T11:34:14;101032.72;;;19.44;67.15
66381;BME280;53177;52.648;1.214;2023-07-20T11:36:50;101025.16;;;19.68;69.32
66381;BME280;53177;52.648;1.214;2023-07-20T11:39:17;101020.06;;;19.95;62.75
66381;BME280;53177;52.648;1.214;2023-07-20T11:41:49;101014.75;;;20.25;62.15
66381;BME280;53177;52.648;1.214;2023-07-20T11:44:16;101022.06;;;20.68;59.81
66381;BME280;53177;52.648;1.214;2023-07-20T11:46:43;101020.72;;;20.14;57.74
66381;BME280;53177;52.648;1.214;2023-07-20T11:49:09;101006.88;;;19.75;58.64
66381;BME280;53177;52.648;1.214;2023-07-20T11:51:35;101006.69;;;19.62;62.23
66381;BME280;53177;52.648;1.214;2023-07-20T11:54:02;100997.00;;;20.07;61.35
66381;BME280;53177;52.648;1.214;2023-07-20T11:56:27;100997.34;;;20.01;56.35
66381;BME280;53177;52.648;1.214;2023-07-20T11:59:00;100995.91;;;20.56;56.75
66381;BME280;53177;52.648;1.214;2023-07-20T12:01:27;100989.53;;;20.43;60.63
66381;BME280;53177;52.648;1.214;2023-07-20T12:04:01;100990.00;;;20.35;58.29
66381;BME280;53177;52.648;1.214;2023-07-20T12:06:28;100995.47;;;20.03;57.22
66381;BME280;53177;52.648;1.214;2023-07-20T12:08:58;100995.34;;;20.20;63.19
66381;BME280;53177;52.648;1.214;2023-07-20T12:11:38;100999.91;;;19.88;59.44
66381;BME280;53177;52.648;1.214;2023-07-20T12:14:06;101000.84;;;19.87;62.39
66381;BME280;53177;52.648;1.214;2023-07-20T12:16:32;100992.28;;;19.80;64.54
66381;BME280;53177;52.648;1.214;2023-07-20T12:21:27;100998.66;;;19.78;64.11
66381;BME280;53177;52.648;1.214;2023-07-20T12:23:52;100996.84;;;19.78;66.18
66381;BME280;53177;52.648;1.214;2023-07-20T12:26:19;100992.09;;;19.83;66.01
66381;BME280;53177;52.648;1.214;2023-07-20T12:28:47;100990.69;;;19.28;59.07
66381;BME280;53177;52.648;1.214;2023-07-20T12:31:12;100987.22;;;19.59;63.86
66381;BME280;53177;52.648;1.214;2023-07-20T12:33:38;100982.56;;;19.78;61.18
66381;BME280;53177;52.648;1.214;2023-07-20T12:36:04;100987.91;;;19.93;63.76
66381;BME280;53177;52.648;1.214;2023-07-20T12:38:30;100974.94;;;20.02;57.12
66381;BME280;53177;52.648;1.214;2023-07-20T12:41:00;100976.63;;;20.18;60.51
66381;BME280;53177;52.648;1.214;2023-07-20T12:43:29;100971.00;;;20.07;58.24
66381;BME280;53177;52.648;1.214;2023-07-20T12:45:55;100976.66;;;19.71;58.08
66381;BME280;53177;52.648;1.214;2023-07-20T12:48:21;100976.91;;;19.67;61.74
66381;BME280;53177;52.648;1.214;2023-07-20T12:50:47;100976.59;;;19.73;60.20
66381;BME280;53177;52.648;1.214;2023-07-20T12:53:13;100978.84;;;19.80;62.08
66381;BME280;53177;52.648;1.214;2023-07-20T12:55:38;100992.28;;;19.80;57.92
66381;BME280;53177;52.648;1.214;2023-07-20T12:58:07;100985.09;;;19.32;57.96
66381;BME280;53177;52.648;1.214;2023-07-20T13:00:33;100980.97;;;18.92;59.78
66381;BME280;53177;52.648;1.214;2023-07-20T13:02:58;100986.13;;;18.80;62.71
66381;BME280;53177;52.648;1.214;2023-07-20T13:05:23;100982.59;;;18.62;65.60
66381;BME280;53177;52.648;1.214;2023-07-20T13:07:49;100987.13;;;18.43;70.33